createdAt,value
2019-04-16T03:47:56.278Z,19.23
2019-04-16T03:51:09.991Z,19.90
2019-04-16T03:54:27.182Z,20.47
2019-04-16T03:57:16.120Z,22.83
2019-04-16T04:00:00.470Z,25.88
2019-04-16T04:02:40.569Z,23.98
2019-04-16T04:05:22.348Z,23.00
2019-04-16T04:07:59.025Z,25.10
2019-04-16T04:10:36.797Z,26.93
2019-04-16T04:13:23.379Z,25.50
2019-04-16T04:16:01.529Z,21.68
2019-04-16T04:18:31.519Z,21.90
2019-04-16T04:21:07.153Z,21.07
2019-04-16T04:23:46.854Z,18.67
2019-04-16T04:26:19.751Z,19.50
2019-04-16T04:28:58.005Z,20.17
2019-04-16T04:31:42.159Z,18.60
2019-04-16T04:35:07.049Z,20.10
2019-04-16T04:38:18.694Z,20.03
2019-04-16T04:40:59.691Z,20.67
2019-04-16T04:43:50.547Z,19.40
2019-04-16T04:46:30.896Z,18.30
2019-04-16T04:49:07.220Z,17.30
2019-04-16T04:52:00.946Z,17.80
2019-04-16T04:54:35.593Z,17.93
2019-04-16T04:57:12.300Z,15.83
2019-04-16T04:59:58.150Z,15.73
2019-04-16T05:02:34.033Z,15.70
2019-04-16T05:11:30.214Z,15.83
2019-04-16T05:14:14.434Z,15.77
2019-04-16T05:17:00.110Z,15.50
2019-04-16T05:19:46.053Z,16.77
2019-04-16T05:22:32.957Z,15.23
2019-04-16T05:25:08.801Z,16.33
2019-04-16T05:27:56.304Z,16.83
2019-04-16T05:30:34.030Z,15.73
2019-04-16T05:33:09.564Z,14.40
2019-04-16T05:35:49.356Z,14.63
2019-04-16T05:38:26.186Z,15.90
2019-04-16T05:41:12.483Z,15.07
2019-04-16T05:43:48.395Z,16.60
2019-04-16T05:46:26.392Z,15.50
2019-04-16T05:49:00.418Z,15.20
2019-04-16T05:51:40.129Z,16.27
2019-04-16T05:54:47.532Z,14.20
2019-04-16T05:57:57.917Z,15.38
2019-04-16T06:01:17.974Z,14.73
2019-04-16T06:03:58.540Z,14.90
2019-04-16T06:06:33.366Z,15.30
2019-04-16T06:09:17.796Z,15.00
2019-04-16T06:12:01.177Z,14.83
2019-04-16T06:14:41.587Z,15.87
2019-04-16T06:17:49.569Z,16.53
2019-04-16T06:21:13.459Z,15.93
2019-04-16T06:24:21.286Z,14.57
2019-04-16T06:27:12.244Z,14.73
2019-04-16T06:30:19.384Z,13.90
2019-04-16T06:33:27.491Z,15.50
2019-04-16T06:36:26.087Z,15.53
2019-04-16T06:39:36.641Z,16.33
2019-04-16T06:42:29.157Z,15.50
2019-04-16T06:45:25.936Z,15.20
2019-04-16T06:48:06.155Z,16.50
2019-04-16T06:50:58.867Z,16.37
2019-04-16T06:53:42.816Z,14.40
2019-04-16T06:56:40.332Z,15.37
2019-04-16T06:59:30.948Z,15.30
2019-04-16T07:02:32.395Z,16.90
2019-04-16T07:05:34.641Z,15.43
2019-04-16T07:08:36.948Z,16.43
2019-04-16T07:11:05.358Z,15.87
2019-04-16T07:13:42.175Z,15.97
2019-04-16T07:16:19.779Z,14.35
2019-04-16T07:18:59.713Z,15.53
2019-04-16T07:21:33.935Z,15.32
2019-04-16T07:24:08.068Z,15.67
2019-04-16T07:26:46.408Z,16.13
2019-04-16T07:29:37.019Z,17.57
2019-04-16T07:32:28.903Z,17.67
2019-04-16T07:35:33.095Z,16.10
2019-04-16T07:38:18.540Z,16.23
2019-04-16T07:41:21.413Z,16.77
2019-04-16T07:44:13.433Z,16.57
2019-04-16T07:47:19.649Z,15.93
2019-04-16T07:50:09.086Z,17.00
2019-04-16T07:53:24.816Z,17.00
2019-04-16T07:56:23.278Z,16.23
2019-04-16T07:59:01.275Z,16.83
2019-04-16T08:01:47.790Z,15.47
2019-04-16T08:04:28.668Z,15.27
2019-04-16T08:06:57.768Z,16.77
2019-04-16T08:09:33.862Z,16.43
2019-04-16T08:12:21.898Z,14.93
2019-04-16T08:14:48.191Z,15.10
2019-04-16T08:17:21.678Z,15.70
2019-04-16T08:20:06.976Z,16.00
2019-04-16T08:22:47.249Z,15.77
2019-04-16T08:25:23.385Z,14.27
2019-04-16T08:27:59.582Z,16.20
2019-04-16T08:30:39.011Z,15.45
2019-04-16T08:33:13.776Z,17.20
2019-04-16T08:35:50.706Z,16.73
2019-04-16T08:38:25.900Z,16.60
2019-04-16T08:41:01.914Z,16.70
2019-04-16T08:43:39.070Z,15.73
2019-04-16T08:46:19.018Z,15.33
2019-04-16T08:48:59.336Z,16.47
2019-04-16T08:51:56.446Z,14.77
2019-04-16T08:54:33.384Z,17.03
2019-04-16T08:57:07.939Z,18.57
2019-04-16T08:59:45.638Z,17.00
2019-04-16T09:02:26.996Z,18.83
2019-04-16T09:04:59.386Z,15.60
2019-04-16T09:07:44.190Z,17.30
2019-04-16T09:10:30.098Z,16.47
2019-04-16T09:13:05.421Z,15.30
2019-04-16T09:15:38.565Z,17.60
2019-04-16T09:18:23.757Z,17.97
2019-04-16T09:21:12.260Z,17.40
2019-04-16T09:24:14.106Z,17.87
2019-04-16T09:26:55.755Z,16.80
2019-04-16T09:29:42.655Z,17.83
2019-04-16T09:32:39.480Z,18.30
2019-04-16T09:35:38.792Z,17.70
2019-04-16T09:38:35.399Z,16.80
2019-04-16T09:41:31.836Z,17.47
2019-04-16T09:44:05.898Z,18.07
2019-04-16T09:46:53.586Z,19.20
2019-04-16T09:49:18.397Z,18.53
2019-04-16T09:51:54.537Z,18.50
2019-04-16T09:54:29.410Z,18.70
2019-04-16T09:57:03.994Z,18.27
2019-04-16T09:59:39.689Z,18.90
2019-04-16T10:02:32.680Z,18.97
2019-04-16T10:05:12.813Z,18.40
2019-04-16T10:07:50.742Z,18.60
2019-04-16T10:10:50.652Z,17.57
2019-04-16T10:13:45.095Z,17.75
2019-04-16T10:16:21.586Z,19.33
2019-04-16T10:19:09.245Z,19.20
2019-04-16T10:21:55.747Z,19.40
2019-04-16T10:24:46.570Z,18.80
2019-04-16T10:27:43.079Z,18.75
2019-04-16T10:30:30.223Z,19.07
2019-04-16T10:33:04.971Z,18.80
2019-04-16T10:35:41.070Z,19.35
2019-04-16T10:38:34.451Z,18.97
2019-04-16T10:41:35.412Z,19.30
2019-04-16T10:44:40.743Z,20.07
2019-04-16T10:47:48.052Z,18.27
2019-04-16T10:54:02.689Z,18.67
2019-04-16T10:57:12.065Z,18.07
2019-04-16T11:00:24.807Z,17.60
2019-04-16T11:03:28.658Z,18.73
2019-04-16T11:06:13.955Z,18.20
2019-04-16T11:08:47.185Z,19.50
2019-04-16T11:11:27.960Z,18.47
2019-04-16T11:14:00.643Z,18.50
2019-04-16T11:16:47.042Z,17.83
2019-04-16T11:19:26.571Z,18.45
2019-04-16T11:22:05.754Z,18.60
2019-04-16T11:24:41.710Z,16.90
2019-04-16T11:27:18.614Z,19.10
2019-04-16T11:29:50.328Z,17.80
2019-04-16T11:32:30.217Z,18.80
2019-04-16T11:35:26.268Z,18.15
2019-04-16T11:38:05.832Z,19.33
2019-04-16T11:40:41.487Z,17.77
2019-04-16T11:43:17.354Z,19.60
2019-04-16T11:46:17.231Z,17.87
2019-04-16T11:48:59.038Z,18.40
2019-04-16T11:51:41.363Z,18.23
2019-04-16T11:54:24.934Z,19.40
2019-04-16T11:57:07.036Z,19.97
2019-04-16T11:59:48.138Z,18.40
2019-04-16T12:02:31.009Z,19.43
2019-04-16T12:05:26.947Z,20.30
2019-04-16T12:08:32.743Z,19.10
2019-04-16T12:11:28.415Z,20.07
2019-04-16T12:14:30.687Z,18.73
2019-04-16T12:17:16.724Z,20.05
2019-04-16T12:20:09.111Z,18.77
2019-04-16T12:22:53.934Z,20.10
2019-04-16T12:26:01.179Z,21.20
2019-04-16T12:29:16.137Z,17.53
2019-04-16T12:32:22.040Z,19.63
2019-04-16T12:35:35.703Z,20.23
2019-04-16T12:38:25.934Z,20.20
2019-04-16T12:41:24.656Z,17.57
2019-04-16T12:44:13.366Z,18.33
2019-04-16T12:47:13.393Z,21.30
2019-04-16T12:49:57.443Z,20.47
2019-04-16T12:52:51.915Z,19.17
2019-04-16T12:59:26.428Z,18.90
2019-04-16T13:02:21.049Z,20.53
2019-04-16T13:05:07.136Z,21.50
2019-04-16T13:08:13.132Z,22.97
2019-04-16T13:11:11.890Z,20.07
2019-04-16T13:13:58.123Z,20.20
2019-04-16T13:16:44.696Z,21.50
2019-04-16T13:19:45.832Z,20.77
2019-04-16T13:22:27.417Z,21.93
2019-04-16T13:25:10.921Z,21.00
2019-04-16T13:27:50.836Z,20.50
2019-04-16T13:30:27.255Z,21.83
2019-04-16T13:33:00.860Z,21.67
2019-04-16T13:35:39.754Z,20.70
2019-04-16T13:38:18.487Z,20.67
2019-04-16T13:40:54.186Z,23.13
2019-04-16T13:43:36.716Z,22.55
2019-04-16T13:46:14.897Z,22.47
2019-04-16T13:48:59.446Z,19.73
2019-04-16T13:51:34.945Z,20.85
2019-04-16T13:54:45.018Z,19.63
2019-04-16T13:57:22.541Z,20.67
2019-04-16T14:00:11.018Z,21.70
2019-04-16T14:02:57.753Z,21.00
2019-04-16T14:05:29.964Z,19.80
2019-04-16T14:08:13.873Z,19.70
2019-04-16T14:10:49.516Z,22.10
2019-04-16T14:13:33.089Z,21.10
2019-04-16T14:16:18.896Z,22.57
2019-04-16T14:18:53.577Z,21.10
2019-04-16T14:21:33.130Z,19.65
2019-04-16T14:24:25.930Z,22.10
2019-04-16T14:27:13.978Z,21.10
2019-04-16T14:30:09.893Z,20.05
2019-04-16T14:32:46.634Z,21.50
2019-04-16T14:35:33.660Z,21.27
2019-04-16T14:38:21.604Z,20.40
2019-04-16T14:40:57.599Z,20.17
2019-04-16T14:43:39.165Z,20.05
2019-04-16T14:46:21.331Z,19.07
2019-04-16T14:48:53.783Z,19.27
2019-04-16T14:51:33.027Z,22.15
2019-04-16T14:54:13.362Z,20.50
2019-04-16T14:56:53.470Z,19.67
2019-04-16T15:00:01.101Z,21.10
2019-04-16T15:03:11.953Z,22.10
2019-04-16T15:06:11.029Z,19.83
2019-04-16T15:09:24.761Z,22.07
2019-04-16T15:12:35.109Z,23.03
2019-04-16T15:15:34.865Z,20.13
2019-04-16T15:18:52.123Z,19.97
2019-04-16T15:21:54.860Z,21.07
2019-04-16T15:24:49.647Z,20.47
2019-04-16T15:31:16.845Z,21.83
2019-04-16T15:34:23.743Z,22.37
2019-04-16T15:37:33.207Z,22.83
2019-04-16T15:40:40.560Z,22.37
2019-04-16T15:43:36.279Z,21.75
2019-04-16T15:46:56.879Z,20.80
2019-04-16T15:50:17.910Z,20.13
2019-04-16T15:53:00.899Z,20.10
2019-04-16T15:56:02.532Z,20.17
2019-04-16T15:59:25.996Z,20.53
2019-04-16T16:05:40.027Z,20.90
2019-04-16T16:08:36.804Z,22.30
2019-04-16T16:11:25.873Z,23.40
2019-04-16T16:14:16.168Z,23.13
2019-04-16T16:20:33.610Z,21.20
2019-04-16T16:23:46.499Z,20.62
2019-04-16T16:26:29.666Z,20.50
2019-04-16T16:29:22.772Z,22.37
2019-04-16T16:32:28.816Z,20.37
2019-04-16T16:41:26.164Z,21.33
2019-04-16T16:44:20.158Z,20.77
2019-04-16T16:47:55.991Z,21.10
2019-04-16T16:54:44.902Z,21.40
2019-04-16T16:57:37.544Z,19.80
2019-04-16T17:01:00.350Z,19.53
2019-04-16T17:07:53.678Z,20.37
2019-04-16T17:10:57.180Z,21.20
2019-04-16T17:15:03.579Z,21.60
2019-04-16T17:24:20.368Z,20.45
2019-04-16T17:28:18.220Z,21.10
2019-04-16T17:30:56.708Z,21.03
2019-04-16T17:37:00.738Z,18.70
2019-04-16T17:40:02.086Z,19.70
2019-04-16T17:58:06.321Z,20.60
2019-04-16T18:01:55.777Z,20.47
2019-04-16T18:04:55.616Z,22.17
2019-04-16T18:12:59.476Z,19.23
2019-04-16T18:16:22.196Z,24.27
2019-04-16T18:19:57.654Z,22.07
2019-04-16T18:23:41.502Z,22.77
2019-04-16T18:30:21.932Z,20.67
2019-04-16T18:33:52.348Z,18.93
2019-04-16T18:36:45.292Z,20.03
2019-04-16T18:43:50.034Z,20.93
2019-04-16T18:47:04.334Z,19.87
2019-04-16T18:49:47.846Z,20.43
2019-04-16T18:52:27.447Z,21.60
2019-04-16T18:55:17.610Z,21.30
2019-04-16T18:59:21.092Z,20.17
2019-04-16T19:02:13.831Z,21.13
2019-04-16T19:05:05.990Z,19.90
2019-04-16T19:07:44.254Z,20.10
2019-04-16T19:10:24.054Z,22.00
2019-04-16T19:13:11.194Z,20.23
2019-04-16T19:15:43.015Z,20.88
2019-04-16T19:19:06.697Z,20.87
2019-04-16T19:25:33.159Z,19.70
2019-04-16T19:28:06.992Z,19.90
2019-04-16T19:30:50.562Z,19.47
2019-04-16T19:33:38.245Z,19.07
2019-04-16T19:36:22.327Z,19.10
2019-04-16T19:39:34.054Z,19.07
2019-04-16T19:46:15.718Z,18.17
2019-04-16T19:49:08.089Z,20.93
2019-04-16T19:51:45.789Z,19.70
2019-04-16T19:54:31.696Z,19.30
2019-04-16T19:57:06.446Z,17.13
2019-04-16T19:59:46.407Z,19.47
2019-04-16T20:02:20.583Z,20.50
2019-04-16T20:09:07.343Z,17.90
2019-04-16T20:12:10.975Z,18.10
2019-04-16T20:14:58.978Z,17.20
2019-04-16T20:17:39.333Z,18.82
2019-04-16T20:20:23.403Z,18.40
2019-04-16T20:22:59.570Z,19.77
2019-04-16T20:47:24.271Z,18.20
2019-04-16T20:52:10.711Z,17.37
2019-04-16T21:02:57.170Z,16.90
2019-04-16T21:48:05.632Z,21.30
2019-04-16T21:50:48.234Z,21.67
2019-04-16T21:53:37.224Z,21.02
2019-04-16T21:56:42.088Z,20.00
2019-04-16T22:14:51.100Z,20.47
2019-04-16T22:26:17.105Z,21.00
2019-04-16T23:45:54.548Z,20.10
